M I D A S
Marine Information and Data Acquisition System
Tripno 2122 of the Zeeleeuw from 2011-06-17 07:37:05 to 2011-06-17 14:36:01
Back to CruiseResearch ActivitiesStationsMapUnderway DataData graphs

EquipmentUnitsComments
TimeDGPSUTC
LatitudeDGPSDM.mWGS84
LongitudeDGPSDM.mWGS84
SpeedMeteo Stationm/sRelative wind speed
DirectionMeteo StationdegRelative wind direction
TemperatureMeteo Stationdeg CelciusAir temperature
PressureMeteo StationPaAtmospheric pressure
HumidityMeteo Station%Relative humidity
Missing or incorrect values are displayed as -999
Metereological data collected by the RV Zeeleeuw from 2011-06-17 07:27:08 to 2011-06-17 15:16:07
Time Latitude Longitude Speed Direction Temperature Pressure Humidity
2011-06-17 07:28 51°13.659 2°55.933 2.7 35 14 101330 40
2011-06-17 07:29 51°13.67 2°55.882 4.2 25 14 101330 40
2011-06-17 07:30 51°13.7 2°55.799 5.6 24 14 101320 38
2011-06-17 07:31 51°13.745 2°55.725 1.6 17 14 101320 38
2011-06-17 07:32 51°13.809 2°55.651 0.6 9 14 101320 39
2011-06-17 07:33 51°13.875 2°55.608 0.7 340 14.1 101320 39
2011-06-17 07:34 51°13.935 2°55.612 5.5 22 14.1 101320 39
2011-06-17 07:35 51°13.956 2°55.609 6.9 20 14.1 101310 38
2011-06-17 07:36 51°14.015 2°55.517 4 25 14.2 101320 39
2011-06-17 07:37 51°14.135 2°55.425 0.1 25 14.3 101310 37
2011-06-17 07:38 51°14.278 2°55.314 0.4 256 14.4 101320 38
2011-06-17 07:39 51°14.431 2°55.156 6.7 28 14.5 101310 38
2011-06-17 07:40 51°14.599 2°54.986 6.9 23 14.5 101300 37
2011-06-17 07:41 51°14.789 2°54.856 4.7 260 14.5 101300 37
2011-06-17 07:42 51°14.979 2°54.744 4.5 251 14.6 101310 39
2011-06-17 07:43 51°15.155 2°54.576 4.6 255 14.6 101310 38
2011-06-17 07:44 51°15.336 2°54.409 2.5 248 14.7 101310 39
2011-06-17 07:45 51°15.516 2°54.228 6.4 246 14.7 101300 38
2011-06-17 07:46 51°15.681 2°54.011 5.4 251 14.7 101300 39
2011-06-17 07:47 51°15.859 2°53.827 7.7 251 14.6 101300 38
2011-06-17 07:48 51°16.03 2°53.606 6.4 20 14.6 101300 38
2011-06-17 07:49 51°16.209 2°53.407 5.5 21 14.6 101290 38
2011-06-17 07:50 51°16.377 2°53.193 6 251 14.6 101290 39
2011-06-17 07:51 51°16.559 2°53.031 3.9 20 14.6 101300 38
2011-06-17 07:52 51°16.741 2°52.856 5.2 249 14.6 101290 38
2011-06-17 07:53 51°16.912 2°52.678 6.5 22 14.7 101290 39
2011-06-17 07:54 51°17.09 2°52.522 6.5 245 14.7 101290 39
2011-06-17 07:55 51°17.271 2°52.382 6.3 23 14.7 101290 39
2011-06-17 07:56 51°17.448 2°52.214 4.4 19 14.6 101300 39
2011-06-17 07:57 51°17.634 2°52.067 3.3 20 14.6 101300 38
2011-06-17 07:58 51°17.81 2°51.918 3.8 23 14.6 101300 39
2011-06-17 07:59 51°17.993 2°51.779 5.1 255 14.6 101300 39
2011-06-17 08:00 51°18.177 2°51.634 5.4 24 14.6 101290 39
2011-06-17 08:01 51°18.362 2°51.484 3.8 23 14.5 101280 38
2011-06-17 08:02 51°18.553 2°51.348 5.1 253 14.5 101280 39
2011-06-17 08:03 51°18.735 2°51.206 5.5 246 14.5 101280 38
2011-06-17 08:04 51°18.921 2°51.051 5 248 14.5 101280 39
2011-06-17 08:05 51°19.104 2°50.892 4.3 20 14.5 101280 38
2011-06-17 08:06 51°19.289 2°50.744 3.7 253 14.5 101280 39
2011-06-17 08:07 51°19.469 2°50.591 6 25 14.6 101280 38
2011-06-17 08:08 51°19.656 2°50.444 4.3 250 14.6 101290 39
2011-06-17 08:09 51°19.842 2°50.284 7 20 14.6 101280 39
2011-06-17 08:10 51°20.028 2°50.131 5.1 255 14.5 101280 38
2011-06-17 08:11 51°20.195 2°49.988 4.1 264 14.5 101270 39
2011-06-17 08:12 51°20.328 2°49.859 4.6 256 14.6 101270 38
2011-06-17 08:13 51°20.463 2°49.735 4.5 19 14.5 101270 39
2011-06-17 08:14 51°20.598 2°49.61 6.8 256 14.6 101270 39
2011-06-17 08:15 51°20.72 2°49.477 6.5 258 14.6 101270 39
2011-06-17 08:16 51°20.843 2°49.343 4.4 261 14.7 101260 39
2011-06-17 08:17 51°20.984 2°49.21 3.2 249 14.6 101270 38
2011-06-17 08:18 51°21.156 2°49.061 4 247 14.6 101260 39
2011-06-17 08:19 51°21.35 2°48.943 3.7 250 14.6 101260 39
2011-06-17 08:20 51°21.547 2°48.818 0.8 248 14.6 101260 38
2011-06-17 08:21 51°21.737 2°48.684 3.4 20 14.6 101260 38
2011-06-17 08:22 51°21.932 2°48.552 3.2 21 14.6 101260 38
2011-06-17 08:23 51°22.127 2°48.445 3.7 28 14.6 101260 39
2011-06-17 08:24 51°22.324 2°48.318 3.9 252 14.5 101250 39
2011-06-17 08:25 51°22.512 2°48.202 5.4 254 14.6 101250 38
2011-06-17 08:26 51°22.697 2°48.072 2.9 247 14.6 101250 39
2011-06-17 08:27 51°22.889 2°47.954 5.1 251 14.7 101240 40
2011-06-17 08:28 51°23.076 2°47.837 4.5 21 14.7 101250 39
2011-06-17 08:29 51°23.271 2°47.713 4.3 250 14.6 101240 39
2011-06-17 08:30 51°23.458 2°47.586 3.2 245 14.6 101240 38
2011-06-17 08:31 51°23.649 2°47.46 3 249 14.7 101240 38
2011-06-17 08:32 51°23.84 2°47.33 4.2 29 14.7 101240 38
2011-06-17 08:33 51°24.032 2°47.202 3.1 19 14.7 101230 39
2011-06-17 08:34 51°24.221 2°47.06 2.2 20 14.6 101230 38
2011-06-17 08:35 51°24.41 2°46.921 2.3 248 14.6 101240 39
2011-06-17 08:36 51°24.599 2°46.779 3.4 26 14.6 101230 40
2011-06-17 08:37 51°24.792 2°46.64 2.1 20 14.6 101230 39
2011-06-17 08:38 51°24.976 2°46.499 4.1 254 14.6 101210 39
2011-06-17 08:39 51°25.165 2°46.36 3.7 255 14.6 101220 39
2011-06-17 08:40 51°25.359 2°46.22 3.1 252 14.5 101220 39
2011-06-17 08:41 51°25.543 2°46.077 3.7 22 14.4 101220 39
2011-06-17 08:42 51°25.732 2°45.943 3.2 22 14.5 101210 38
2011-06-17 08:43 51°25.92 2°45.811 0.8 251 14.6 101210 39
2011-06-17 08:44 51°26.107 2°45.671 0.1 248 14.6 101210 39
2011-06-17 08:45 51°26.296 2°45.523 -999 251 14.5 101210 39
2011-06-17 08:46 51°26.481 2°45.387 -999 250 14.6 101200 39
2011-06-17 08:47 51°26.674 2°45.251 -999 251 14.6 101210 38
2011-06-17 08:48 51°26.862 2°45.107 -999 254 14.5 101200 39
2011-06-17 08:49 51°27.052 2°44.971 -999 255 14.6 101200 39
2011-06-17 08:50 51°27.237 2°44.823 4.1 255 14.6 101200 39
2011-06-17 08:51 51°27.429 2°44.68 2.5 259 14.5 101190 38
2011-06-17 08:52 51°27.618 2°44.56 0.1 253 14.5 101190 39
2011-06-17 08:53 51°27.813 2°44.42 0.3 263 14.5 101180 39
2011-06-17 08:54 51°28.002 2°44.282 -999 250 14.4 101190 38
2011-06-17 08:55 51°28.192 2°44.149 -999 256 14.4 101190 38
2011-06-17 08:56 51°28.38 2°44.013 -999 255 14.5 101190 38
2011-06-17 08:57 51°28.568 2°43.897 3.4 251 14.5 101180 38
2011-06-17 08:58 51°28.76 2°43.778 1.8 254 14.5 101170 39
2011-06-17 08:59 51°28.945 2°43.648 3 255 14.5 101180 38
2011-06-17 09:00 51°29.134 2°43.515 2.8 252 14.5 101170 39
2011-06-17 09:01 51°29.316 2°43.383 1.8 265 14.5 101180 38
2011-06-17 09:02 51°29.503 2°43.264 -999 258 14.5 101180 39
2011-06-17 09:03 51°29.694 2°43.157 -999 28 14.4 101170 39
2011-06-17 09:04 51°29.869 2°43.236 1.4 24 14.4 101170 38
2011-06-17 09:05 51°30.052 2°43.315 0.2 41 14.4 101170 40
2011-06-17 09:06 51°30.232 2°43.388 -999 32 14.3 101170 39
2011-06-17 09:07 51°30.416 2°43.465 -999 33 14.3 101170 39
2011-06-17 09:08 51°30.59 2°43.554 0.1 43 14.3 101180 38
2011-06-17 09:09 51°30.771 2°43.644 -999 17 14.2 101180 39
2011-06-17 09:10 51°30.95 2°43.726 0.1 14 14.3 101170 39
2011-06-17 09:11 51°31.129 2°43.818 -999 18 14.3 101170 39
2011-06-17 09:12 51°31.307 2°43.9 0.1 27 14.3 101160 39
2011-06-17 09:13 51°31.489 2°43.989 1.2 9 14.3 101160 39
2011-06-17 09:14 51°31.67 2°44.069 2.3 14 14.3 101160 39
2011-06-17 09:15 51°31.85 2°44.166 3.3 21 14.3 101160 38
2011-06-17 09:16 51°32.031 2°44.253 -999 24 14.2 101160 39
2011-06-17 09:17 51°32.211 2°44.334 1.2 23 14.1 101150 39
2011-06-17 09:18 51°32.391 2°44.423 0.1 30 14.1 101150 38
2011-06-17 09:19 51°32.57 2°44.518 1.2 21 14.1 101140 39
2011-06-17 09:20 51°32.753 2°44.599 -999 17 14.1 101150 38
2011-06-17 09:21 51°32.937 2°44.685 0.8 22 14.2 101150 38
2011-06-17 09:22 51°33.114 2°44.774 0.1 20 14.4 101150 39
2011-06-17 09:23 51°33.299 2°44.861 1.6 24 14.3 101150 39
2011-06-17 09:24 51°33.479 2°44.948 0.2 15 14.2 101140 39
2011-06-17 09:25 51°33.664 2°45.032 0.1 28 14.3 101140 39
2011-06-17 09:26 51°33.839 2°45.115 0.1 27 14.2 101140 39
2011-06-17 09:27 51°34.018 2°45.215 0.3 26 14.2 101140 39
2011-06-17 09:28 51°34.195 2°45.297 1 26 14.1 101140 39
2011-06-17 09:29 51°34.372 2°45.38 2.2 37 14.1 101140 38
2011-06-17 09:30 51°34.549 2°45.468 1.4 23 14.2 101140 38
2011-06-17 09:31 51°34.729 2°45.55 1.3 25 14.1 101140 39
2011-06-17 09:32 51°34.903 2°45.667 -999 12 14.1 101130 38
2011-06-17 09:33 51°35.073 2°45.786 0.1 25 14.2 101130 39
2011-06-17 09:34 51°35.242 2°45.911 0.1 22 14.2 101120 38
2011-06-17 09:35 51°35.413 2°46.037 1.9 29 14.2 101130 38
2011-06-17 09:36 51°35.601 2°46.112 -999 2 14.3 101140 39
2011-06-17 09:37 51°35.785 2°46.173 0.1 32 14.4 101130 38
2011-06-17 09:38 51°35.968 2°46.264 0.2 28 14.4 101130 39
2011-06-17 09:39 51°36.15 2°46.358 1.3 31 14.3 101130 38
2011-06-17 09:40 51°36.328 2°46.449 3.1 29 14.2 101120 39
2011-06-17 09:41 51°36.514 2°46.54 -999 20 14.2 101120 37
2011-06-17 09:42 51°36.694 2°46.642 1.2 27 14.2 101120 36
2011-06-17 09:43 51°36.873 2°46.734 2.2 19 14.3 101120 37
2011-06-17 09:44 51°37.054 2°46.841 3.1 16 14.3 101110 38
2011-06-17 09:45 51°37.237 2°46.933 1.8 30 14.4 101120 37
2011-06-17 09:46 51°37.413 2°47.042 3.8 19 14.4 101110 38
2011-06-17 09:47 51°37.59 2°47.156 3 19 14.4 101100 38
2011-06-17 09:48 51°37.764 2°47.258 2.5 18 14.3 101100 39
2011-06-17 09:49 51°37.938 2°47.369 2.9 24 14.3 101100 38
2011-06-17 09:50 51°38.124 2°47.465 2.3 17 14.3 101100 38
2011-06-17 09:51 51°38.292 2°47.587 0.1 22 14.3 101100 37
2011-06-17 09:52 51°38.472 2°47.68 3.4 22 14.3 101100 38
2011-06-17 09:53 51°38.647 2°47.789 0.3 24 14.3 101100 39
2011-06-17 09:54 51°38.82 2°47.889 2.2 5 14.4 101100 39
2011-06-17 09:55 51°38.995 2°47.993 0.6 14 14.3 101100 38
2011-06-17 09:56 51°39.168 2°48.088 0.1 6 14.3 101090 38
2011-06-17 09:57 51°39.34 2°48.214 0.1 13 14.3 101080 39
2011-06-17 09:58 51°39.514 2°48.306 -999 5 14.3 101090 38
2011-06-17 09:59 51°39.689 2°48.417 0.1 25 14.3 101080 38
2011-06-17 10:00 51°39.86 2°48.514 -999 4 14.3 101080 38
2011-06-17 10:01 51°40.032 2°48.631 -999 26 14.3 101080 38
2011-06-17 10:02 51°40.199 2°48.742 4 22 14.4 101080 39
2011-06-17 10:03 51°40.373 2°48.858 0.3 10 14.4 101080 39
2011-06-17 10:04 51°40.551 2°48.942 -999 14 14.4 101070 39
2011-06-17 10:05 51°40.723 2°49.049 1.4 2 14.4 101070 38
2011-06-17 10:06 51°40.904 2°49.148 3.9 16 14.4 101070 40
2011-06-17 10:07 51°41.077 2°49.265 3.8 14 14.3 101070 40
2011-06-17 10:08 51°41.253 2°49.36 -999 21 14.3 101070 38
2011-06-17 10:09 51°41.419 2°49.491 1.5 32 14.3 101070 39
2011-06-17 10:10 51°41.598 2°49.572 -999 10 14.4 101070 38
2011-06-17 10:11 51°41.772 2°49.659 -999 251 14.4 101070 37
2011-06-17 10:12 51°41.913 2°49.444 -999 248 14.5 101050 38
2011-06-17 10:13 51°42.053 2°49.186 -999 282 14.5 101060 38
2011-06-17 10:14 51°42.192 2°48.926 -999 24 14.5 101060 38
2011-06-17 10:15 51°42.33 2°48.673 -999 282 14.6 101050 38
2011-06-17 10:16 51°42.349 2°48.328 11.1 21 14.6 101030 38
2011-06-17 10:17 51°42.163 2°48.129 6.1 327 14.6 101040 38
2011-06-17 10:18 51°41.944 2°47.978 13.6 286 14.6 101030 38
2011-06-17 10:19 51°41.722 2°47.84 5.8 326 14.6 101030 37
2011-06-17 10:20 51°41.504 2°47.7 6.6 277 14.6 101010 37
2011-06-17 10:21 51°41.287 2°47.539 13 282 14.7 101010 37
2011-06-17 10:22 51°41.064 2°47.388 8.7 279 14.7 101020 37
2011-06-17 10:23 51°40.847 2°47.256 12.5 282 14.7 101020 37
2011-06-17 10:24 51°40.626 2°47.102 14.5 326 14.8 101010 37
2011-06-17 10:25 51°40.41 2°46.952 13.1 327 14.7 101020 37
2011-06-17 10:26 51°40.192 2°46.82 11.6 284 14.8 101010 37
2011-06-17 10:27 51°39.972 2°46.675 12.1 323 14.8 101020 38
2011-06-17 10:28 51°39.755 2°46.523 14.1 286 14.8 101000 38
2011-06-17 10:29 51°39.53 2°46.405 11 277 14.8 101010 37
2011-06-17 10:30 51°39.301 2°46.294 10.3 325 14.8 101000 37
2011-06-17 10:31 51°39.077 2°46.176 14.2 324 14.8 101000 37
2011-06-17 10:32 51°38.858 2°46.061 10.3 278 14.8 101010 38
2011-06-17 10:33 51°38.631 2°45.98 14.5 279 14.9 101010 37
2011-06-17 10:34 51°38.4 2°45.902 15 327 14.8 101000 38
2011-06-17 10:35 51°38.177 2°45.822 14.4 282 14.8 101020 37
2011-06-17 10:36 51°37.949 2°45.721 14.3 286 14.8 101010 37
2011-06-17 10:37 51°37.725 2°45.624 13.4 324 14.9 101010 37
2011-06-17 10:38 51°37.507 2°45.514 12.8 323 14.9 101010 38
2011-06-17 10:39 51°37.282 2°45.393 7 323 14.9 101000 38
2011-06-17 10:40 51°37.063 2°45.284 7.2 281 14.8 101000 37
2011-06-17 10:41 51°36.842 2°45.173 15 281 14.8 100990 37
2011-06-17 10:42 51°36.615 2°45.065 13 282 14.9 101000 38
2011-06-17 10:43 51°36.4 2°44.923 12.4 320 14.9 101000 37
2011-06-17 10:44 51°36.186 2°44.796 6.5 281 14.9 101000 37
2011-06-17 10:45 51°35.968 2°44.673 12.4 284 14.9 101000 38
2011-06-17 10:46 51°35.748 2°44.537 13.3 324 14.9 101000 38
2011-06-17 10:47 51°35.535 2°44.409 12.7 279 14.9 101000 38
2011-06-17 10:48 51°35.32 2°44.279 14.1 323 14.9 101000 38
2011-06-17 10:49 51°35.098 2°44.153 14 323 15 100990 38
2011-06-17 10:50 51°34.884 2°44.029 15 320 14.9 100980 37
2011-06-17 10:51 51°34.666 2°43.89 14.5 322 15 100990 39
2011-06-17 10:52 51°34.454 2°43.758 11.4 322 14.9 100990 38
2011-06-17 10:53 51°34.234 2°43.646 11.5 322 14.9 100990 38
2011-06-17 10:54 51°34.018 2°43.517 15 319 15 100980 38
2011-06-17 10:55 51°33.8 2°43.38 15.1 321 15 100980 39
2011-06-17 10:56 51°33.584 2°43.252 11.3 322 15.1 100980 39
2011-06-17 10:57 51°33.366 2°43.139 13.9 323 15 100980 38
2011-06-17 10:58 51°33.159 2°42.988 13.2 317 15 100970 37
2011-06-17 10:59 51°32.986 2°42.749 12.9 25 15 100980 37
2011-06-17 11:00 51°32.836 2°42.471 11.7 23 15 100970 38
2011-06-17 11:01 51°32.691 2°42.193 10.7 26 15 100980 38
2011-06-17 11:02 51°32.557 2°41.888 5.8 26 15 100970 38
2011-06-17 11:03 51°32.46 2°41.562 9.8 19 15 100970 38
2011-06-17 11:04 51°32.355 2°41.229 5.9 26 15 100980 38
2011-06-17 11:05 51°32.247 2°40.914 13.2 25 15 100970 39
2011-06-17 11:06 51°32.14 2°40.59 11.1 21 15.1 100970 39
2011-06-17 11:07 51°32.074 2°40.254 6.9 21 15.1 100970 39
2011-06-17 11:08 51°32.227 2°40.141 2.2 17 15.1 101000 38
2011-06-17 11:09 51°32.42 2°40.203 -999 16 15.1 101010 38
2011-06-17 11:10 51°32.607 2°40.282 -999 18 15.1 101000 39
2011-06-17 11:11 51°32.782 2°40.407 -999 10 15.1 101000 39
2011-06-17 11:12 51°32.959 2°40.539 4.7 16 15 101000 39
2011-06-17 11:13 51°33.139 2°40.658 5.1 20 15 101000 38
2011-06-17 11:14 51°33.317 2°40.788 4 15 15 100990 38
2011-06-17 11:15 51°33.5 2°40.907 4.9 10 15 100990 38
2011-06-17 11:16 51°33.681 2°41.04 4.4 20 15.1 100990 39
2011-06-17 11:17 51°33.857 2°41.163 3.7 20 15 100990 39
2011-06-17 11:18 51°34.038 2°41.283 4.4 16 15 100990 38
2011-06-17 11:19 51°34.224 2°41.406 4.6 13 15 100990 39
2011-06-17 11:20 51°34.399 2°41.539 5.6 17 15.1 100980 39
2011-06-17 11:21 51°34.586 2°41.66 4.1 23 15.1 100980 39
2011-06-17 11:22 51°34.781 2°41.73 0.4 26 15.1 100980 39
2011-06-17 11:23 51°34.974 2°41.815 3.6 23 15 100980 38
2011-06-17 11:24 51°35.167 2°41.91 -999 20 15.1 100980 39
2011-06-17 11:25 51°35.359 2°42.006 -999 19 15 100980 38
2011-06-17 11:26 51°35.554 2°42.092 -999 18 15 100970 38
2011-06-17 11:27 51°35.752 2°42.189 -999 24 15 100980 39
2011-06-17 11:28 51°35.944 2°42.28 -999 18 15 100980 38
2011-06-17 11:29 51°36.138 2°42.376 -999 27 15.1 100970 38
2011-06-17 11:30 51°36.335 2°42.474 -999 16 15 100970 38
2011-06-17 11:31 51°36.529 2°42.575 -999 20 15.1 100970 38
2011-06-17 11:32 51°36.724 2°42.661 -999 24 15.1 100970 38
2011-06-17 11:33 51°36.921 2°42.748 -999 20 15.1 100970 38
2011-06-17 11:34 51°37.111 2°42.856 -999 21 15.1 100970 39
2011-06-17 11:35 51°37.299 2°42.965 -999 15 15.1 100970 39
2011-06-17 11:36 51°37.497 2°43.063 -999 14 15.1 100970 38
2011-06-17 11:37 51°37.689 2°43.164 -999 14 15.1 100960 39
2011-06-17 11:38 51°37.886 2°43.261 -999 17 15.1 100970 39
2011-06-17 11:39 51°38.082 2°43.364 -999 23 15.1 100960 39
2011-06-17 11:40 51°38.275 2°43.469 -999 15 15.1 100960 39
2011-06-17 11:41 51°38.47 2°43.567 -999 19 15.1 100970 39
2011-06-17 11:42 51°38.667 2°43.663 -999 15 15.1 100960 37
2011-06-17 11:43 51°38.86 2°43.767 -999 12 15.1 100960 39
2011-06-17 11:44 51°39.051 2°43.867 -999 22 15.1 100960 38
2011-06-17 11:45 51°39.248 2°43.972 -999 19 15.1 100960 38
2011-06-17 11:46 51°39.438 2°44.072 -999 29 15.1 100950 38
2011-06-17 11:47 51°39.636 2°44.16 -999 32 15.1 100960 38
2011-06-17 11:48 51°39.838 2°44.254 -999 29 15.1 100950 38
2011-06-17 11:49 51°40.034 2°44.348 -999 29 15.1 100960 37
2011-06-17 11:50 51°40.237 2°44.447 -999 25 15.2 100960 36
2011-06-17 11:51 51°40.434 2°44.564 -999 20 15.1 100950 37
2011-06-17 11:52 51°40.632 2°44.668 -999 27 15.2 100950 38
2011-06-17 11:53 51°40.835 2°44.756 -999 20 15.2 100950 38
2011-06-17 11:54 51°41.032 2°44.857 -999 33 15.1 100940 38
2011-06-17 11:55 51°41.236 2°44.961 0.1 27 15.2 100940 38
2011-06-17 11:56 51°41.436 2°45.057 -999 24 15.2 100940 38
2011-06-17 11:57 51°41.643 2°45.163 -999 24 15.2 100940 38
2011-06-17 11:58 51°41.844 2°45.267 -999 22 15.2 100940 36
2011-06-17 11:59 51°42.045 2°45.365 -999 17 15.2 100940 38
2011-06-17 12:00 51°42.242 2°45.5 -999 23 15.2 100940 38
2011-06-17 12:01 51°42.436 2°45.642 -999 14 15.2 100940 38
2011-06-17 12:02 51°42.632 2°45.772 -999 20 15.2 100940 38
2011-06-17 12:03 51°42.833 2°45.902 -999 21 15.1 100930 38
2011-06-17 12:04 51°43.028 2°46.034 -999 8 15.2 100930 38
2011-06-17 12:05 51°43.222 2°46.09 0.1 19 15.1 100930 38
2011-06-17 12:06 51°43.403 2°45.93 -999 248 15.2 100920 36
2011-06-17 12:07 51°43.533 2°45.672 -999 251 15.3 100920 38
2011-06-17 12:08 51°43.656 2°45.405 -999 252 15.3 100910 38
2011-06-17 12:09 51°43.785 2°45.15 -999 254 15.3 100910 38
2011-06-17 12:10 51°43.92 2°44.885 -999 250 15.3 100910 38
2011-06-17 12:11 51°44.05 2°44.63 -999 254 15.4 100920 39
2011-06-17 12:12 51°44.143 2°44.338 9.2 21 15.3 100900 38
2011-06-17 12:13 51°44.067 2°44.051 10.5 316 15.3 100880 38
2011-06-17 12:14 51°43.881 2°43.929 14.4 323 15.2 100870 37
2011-06-17 12:15 51°43.673 2°43.881 6.7 323 15.2 100880 39
2011-06-17 12:16 51°43.474 2°43.794 12.5 322 15.2 100870 39
2011-06-17 12:17 51°43.275 2°43.696 11.2 323 15.3 100870 39
2011-06-17 12:18 51°43.079 2°43.613 14.4 322 15.2 100860 39
2011-06-17 12:19 51°42.875 2°43.536 14.6 324 15.2 100870 39
2011-06-17 12:20 51°42.678 2°43.462 16.2 322 15.1 100860 39
2011-06-17 12:21 51°42.478 2°43.367 14.4 321 15.1 100880 39
2011-06-17 12:22 51°42.28 2°43.28 15.2 322 15.1 100880 38
2011-06-17 12:23 51°42.085 2°43.197 12.8 322 15.1 100860 39
2011-06-17 12:24 51°41.883 2°43.121 13.2 323 15 100860 39
2011-06-17 12:25 51°41.689 2°43.031 16 322 15.1 100860 40
2011-06-17 12:26 51°41.495 2°42.921 15.8 320 15.1 100870 40
2011-06-17 12:27 51°41.307 2°42.818 13.2 322 15 100850 40
2011-06-17 12:28 51°41.11 2°42.728 15.2 323 15 100860 40
2011-06-17 12:29 51°40.919 2°42.647 15.8 321 15 100850 40
2011-06-17 12:30 51°40.725 2°42.549 15.4 320 15 100850 39
2011-06-17 12:31 51°40.531 2°42.471 16.6 323 15 100840 41
2011-06-17 12:32 51°40.339 2°42.384 14.6 321 15 100850 41
2011-06-17 12:33 51°40.148 2°42.295 7.8 325 14.8 100840 40
2011-06-17 12:34 51°39.955 2°42.214 15.7 326 14.8 100840 40
2011-06-17 12:35 51°39.763 2°42.132 7.9 326 14.8 100860 40
2011-06-17 12:36 51°39.579 2°42.029 14.9 324 14.9 100850 40
2011-06-17 12:37 51°39.389 2°41.92 14.6 326 14.9 100840 40
2011-06-17 12:38 51°39.2 2°41.835 13.5 324 14.9 100840 39
2011-06-17 12:39 51°39.013 2°41.742 14.2 324 14.9 100840 39
2011-06-17 12:40 51°38.828 2°41.647 7.9 326 14.9 100830 40
2011-06-17 12:41 51°38.644 2°41.568 14.4 326 14.8 100840 39
2011-06-17 12:42 51°38.453 2°41.496 7.7 325 14.8 100850 39
2011-06-17 12:43 51°38.278 2°41.386 7.9 325 14.8 100840 40
2011-06-17 12:44 51°38.093 2°41.282 20.7 323 14.7 100840 40
2011-06-17 12:45 51°37.915 2°41.187 18.4 325 14.6 100840 41
2011-06-17 12:46 51°37.735 2°41.077 19.8 324 14.4 100840 40
2011-06-17 12:47 51°37.553 2°40.99 17.7 324 14.4 100840 42
2011-06-17 12:48 51°37.374 2°40.889 17.8 281 14.3 100840 42
2011-06-17 12:49 51°37.201 2°40.774 7.2 282 14.2 100840 42
2011-06-17 12:50 51°37.026 2°40.673 12.6 279 14 100840 42
2011-06-17 12:51 51°36.847 2°40.565 6.3 282 14 100840 43
2011-06-17 12:52 51°36.677 2°40.451 14.7 280 14 100830 43
2011-06-17 12:53 51°36.495 2°40.35 11.1 281 14 100840 42
2011-06-17 12:54 51°36.324 2°40.238 15.1 281 14 100830 42
2011-06-17 12:55 51°36.145 2°40.13 6.4 286 14 100830 42
2011-06-17 12:56 51°35.97 2°40.017 14.8 279 14.1 100830 43
2011-06-17 12:57 51°35.793 2°39.926 6.8 278 14.1 100820 42
2011-06-17 12:58 51°35.608 2°39.842 6.7 280 14.2 100820 42
2011-06-17 12:59 51°35.432 2°39.742 13.9 284 14.2 100820 43
2011-06-17 13:00 51°35.246 2°39.658 7.9 280 14.3 100820 42
2011-06-17 13:01 51°35.07 2°39.568 6.6 280 14.3 100810 42
2011-06-17 13:02 51°34.892 2°39.48 14.3 281 14.3 100800 42
2011-06-17 13:03 51°34.711 2°39.383 8.3 280 14.4 100800 42
2011-06-17 13:04 51°34.535 2°39.3 8.5 278 14.3 100800 43
2011-06-17 13:05 51°34.356 2°39.2 8.4 285 14.3 100790 43
2011-06-17 13:06 51°34.18 2°39.104 7.2 281 14.2 100790 43
2011-06-17 13:07 51°34 2°39.021 7.5 280 14.2 100790 43
2011-06-17 13:08 51°33.825 2°38.922 12.9 283 14.2 100800 44
2011-06-17 13:09 51°33.647 2°38.847 6.5 282 14.2 100810 44
2011-06-17 13:10 51°33.467 2°38.766 16.7 280 14.1 100800 43
2011-06-17 13:11 51°33.288 2°38.666 7.6 282 14.1 100800 44
2011-06-17 13:12 51°33.113 2°38.579 14.4 286 14 100790 44
2011-06-17 13:13 51°32.929 2°38.501 17.6 283 13.9 100800 43
2011-06-17 13:14 51°32.75 2°38.409 13 281 13.9 100800 43
2011-06-17 13:15 51°32.573 2°38.329 15.6 285 13.9 100800 43
2011-06-17 13:16 51°32.391 2°38.236 7 280 14 100800 43
2011-06-17 13:17 51°32.21 2°38.158 12.8 283 14 100800 44
2011-06-17 13:18 51°32.023 2°38.084 4.8 284 14 100790 43
2011-06-17 13:19 51°31.843 2°38.009 14.4 278 13.9 100780 44
2011-06-17 13:20 51°31.662 2°37.926 14.7 282 13.9 100780 44
2011-06-17 13:21 51°31.478 2°37.861 6.7 282 13.9 100790 44
2011-06-17 13:22 51°31.3 2°37.775 13.8 281 13.9 100780 44
2011-06-17 13:23 51°31.116 2°37.7 12.5 278 13.9 100770 44
2011-06-17 13:24 51°30.938 2°37.641 14.3 285 13.9 100770 43
2011-06-17 13:25 51°30.767 2°37.53 6.3 285 13.9 100760 44
2011-06-17 13:26 51°30.594 2°37.426 15.5 280 14 100760 43
2011-06-17 13:27 51°30.418 2°37.333 12.6 283 14.1 100760 43
2011-06-17 13:28 51°30.244 2°37.234 7.1 282 14.1 100750 43
2011-06-17 13:29 51°30.075 2°37.132 13.2 276 14.1 100750 43
2011-06-17 13:30 51°29.898 2°37.036 4.9 282 14.1 100750 42
2011-06-17 13:31 51°29.727 2°36.938 13.6 278 14.2 100750 43
2011-06-17 13:32 51°29.551 2°36.836 11.2 283 14.2 100740 43
2011-06-17 13:33 51°29.379 2°36.739 6.6 278 14.2 100750 42
2011-06-17 13:34 51°29.2 2°36.68 11.9 281 14.2 100740 43
2011-06-17 13:35 51°29.035 2°36.85 15.4 284 14.2 100720 42
2011-06-17 13:36 51°28.883 2°37.085 7.1 282 14.2 100740 42
2011-06-17 13:37 51°28.711 2°37.267 6.7 284 14.2 100740 42
2011-06-17 13:38 51°28.547 2°37.463 14.8 283 14.2 100740 42
2011-06-17 13:39 51°28.384 2°37.663 15.2 286 14.2 100740 42
2011-06-17 13:40 51°28.222 2°37.868 7.6 280 14.3 100740 42
2011-06-17 13:41 51°28.063 2°38.074 15.7 280 14.2 100730 41
2011-06-17 13:42 51°27.905 2°38.282 15.9 280 14.3 100740 42
2011-06-17 13:43 51°27.748 2°38.493 6.7 282 14.4 100740 41
2011-06-17 13:44 51°27.592 2°38.72 12.1 283 14.4 100730 42
2011-06-17 13:45 51°27.433 2°38.926 13.7 281 14.4 100740 41
2011-06-17 13:46 51°27.28 2°39.135 12.8 283 14.4 100730 42
2011-06-17 13:47 51°27.13 2°39.365 7.5 281 14.5 100730 41
2011-06-17 13:48 51°26.98 2°39.593 16.4 331 14.5 100730 42
2011-06-17 13:49 51°26.84 2°39.841 5.6 280 14.5 100720 41
2011-06-17 13:50 51°26.697 2°40.084 7.4 281 14.6 100730 40
2011-06-17 13:51 51°26.53 2°40.285 14.3 335 14.5 100720 41
2011-06-17 13:52 51°26.37 2°40.479 7.3 280 14.6 100730 42
2011-06-17 13:53 51°26.21 2°40.699 13.1 331 14.5 100730 42
2011-06-17 13:54 51°26.05 2°40.91 15.3 330 14.6 100720 41
2011-06-17 13:55 51°25.884 2°41.096 18 285 14.6 100730 42
2011-06-17 13:56 51°25.722 2°41.299 7.3 334 14.6 100710 42
2011-06-17 13:57 51°25.559 2°41.503 7.7 279 14.6 100720 42
2011-06-17 13:58 51°25.395 2°41.695 7.6 330 14.6 100720 41
2011-06-17 13:59 51°25.229 2°41.884 5.9 281 14.7 100720 42
2011-06-17 14:00 51°25.071 2°42.089 7.5 331 14.7 100710 42
2011-06-17 14:01 51°24.914 2°42.299 8.4 286 14.8 100700 42
2011-06-17 14:02 51°24.755 2°42.498 5.2 332 14.7 100710 42
2011-06-17 14:03 51°24.593 2°42.69 15.3 282 14.8 100710 42
2011-06-17 14:04 51°24.432 2°42.891 5.8 334 14.8 100710 42
2011-06-17 14:05 51°24.276 2°43.11 8.2 333 14.8 100700 42
2011-06-17 14:06 51°24.111 2°43.303 7.8 281 14.8 100690 40
2011-06-17 14:07 51°23.947 2°43.502 18.3 332 14.9 100700 42
2011-06-17 14:08 51°23.787 2°43.712 6.9 280 15 100700 42
2011-06-17 14:09 51°23.625 2°43.918 8.6 332 15 100700 42
2011-06-17 14:10 51°23.461 2°44.118 19.4 283 14.9 100700 41
2011-06-17 14:11 51°23.3 2°44.323 8.1 335 15 100700 41
2011-06-17 14:12 51°23.141 2°44.529 5.6 282 15 100690 41
2011-06-17 14:13 51°22.989 2°44.745 8.9 280 15 100710 41
2011-06-17 14:14 51°22.838 2°44.979 7.9 280 15 100700 39
2011-06-17 14:15 51°22.686 2°45.201 7.9 280 15 100700 41
2011-06-17 14:16 51°22.529 2°45.411 16 333 15 100690 41
2011-06-17 14:17 51°22.363 2°45.601 11.3 282 15 100690 40
2011-06-17 14:18 51°22.201 2°45.799 17.6 336 15 100680 41
2011-06-17 14:19 51°22.049 2°46.021 7.6 280 15 100700 41
2011-06-17 14:20 51°21.896 2°46.244 7.8 284 15 100690 41
2011-06-17 14:21 51°21.742 2°46.468 15.7 335 15 100690 41
2011-06-17 14:22 51°21.591 2°46.686 16.2 283 15 100690 40
2011-06-17 14:23 51°21.428 2°46.885 13.8 279 14.9 100680 40
2011-06-17 14:24 51°21.261 2°47.088 8.1 284 15 100700 42
2011-06-17 14:25 51°21.099 2°47.296 19.1 334 15 100690 41
2011-06-17 14:26 51°20.938 2°47.496 14.8 285 14.9 100680 41
2011-06-17 14:27 51°20.767 2°47.695 15.9 333 15.1 100690 42
2011-06-17 14:28 51°20.604 2°47.903 17.9 282 15 100690 42
2011-06-17 14:29 51°20.438 2°48.101 7.9 332 15 100690 41
2011-06-17 14:30 51°20.274 2°48.304 13.6 281 14.9 100700 40
2011-06-17 14:31 51°20.108 2°48.5 15.1 282 15 100710 42
2011-06-17 14:32 51°19.951 2°48.718 10.9 280 14.9 100690 42
2011-06-17 14:33 51°19.793 2°48.932 14.5 281 15 100690 41
2011-06-17 14:34 51°19.629 2°49.128 7.6 333 15 100700 41
2011-06-17 14:35 51°19.476 2°49.349 5 281 15 100700 42
2011-06-17 14:36 51°19.326 2°49.568 15.9 284 15 100700 42
2011-06-17 14:37 51°19.164 2°49.774 5.1 278 15 100700 42
2011-06-17 14:38 51°19.007 2°49.996 7 334 15 100700 41
2011-06-17 14:39 51°18.851 2°50.217 7.5 281 15 100670 41
2011-06-17 14:40 51°18.694 2°50.424 7.8 283 15 100690 42
2011-06-17 14:41 51°18.533 2°50.64 8 281 15 100690 41
2011-06-17 14:42 51°18.381 2°50.866 13.1 281 15 100680 41
2011-06-17 14:43 51°18.222 2°51.07 17.6 281 15 100680 41
2011-06-17 14:44 51°18.066 2°51.284 14.6 286 15.1 100680 42
2011-06-17 14:45 51°17.911 2°51.5 6.5 333 15.1 100680 41
2011-06-17 14:46 51°17.751 2°51.701 7.7 281 15.1 100670 40
2011-06-17 14:47 51°17.597 2°51.91 6.9 282 15.1 100680 42
2011-06-17 14:48 51°17.444 2°52.131 15.6 333 15.2 100670 41
2011-06-17 14:49 51°17.279 2°52.333 12.3 282 15.2 100680 42
2011-06-17 14:50 51°17.119 2°52.523 7.3 326 15.1 100660 40
2011-06-17 14:51 51°16.942 2°52.687 7.3 330 15.2 100660 41
2011-06-17 14:52 51°16.766 2°52.842 14.2 327 15.2 100660 42
2011-06-17 14:53 51°16.585 2°52.986 9.7 328 15.3 100660 41
2011-06-17 14:54 51°16.405 2°53.14 7 324 15.3 100660 40
2011-06-17 14:55 51°16.22 2°53.265 16.3 330 15.3 100660 41
2011-06-17 14:56 51°16.034 2°53.391 6.7 323 15.3 100660 41
2011-06-17 14:57 51°15.848 2°53.51 12.4 327 15.3 100660 41
2011-06-17 14:58 51°15.666 2°53.65 14.9 330 15.3 100660 41
2011-06-17 14:59 51°15.514 2°53.877 14.9 333 15.3 100660 41
2011-06-17 15:00 51°15.356 2°54.091 6.7 332 15.3 100660 41
2011-06-17 15:01 51°15.2 2°54.308 16.4 335 15.3 100670 41
2011-06-17 15:02 51°15.038 2°54.506 15.1 328 15.3 100660 40
2011-06-17 15:03 51°14.875 2°54.706 16.2 329 15.3 100660 41
2011-06-17 15:04 51°14.715 2°54.891 15.7 326 15.4 100660 41
2011-06-17 15:05 51°14.533 2°55.022 18.2 328 15.5 100660 41
2011-06-17 15:06 51°14.365 2°55.175 13.9 335 15.4 100660 41
2011-06-17 15:07 51°14.243 2°55.303 11.1 333 15.4 100660 41
2011-06-17 15:08 51°14.132 2°55.413 10.6 337 15.5 100660 41
2011-06-17 15:09 51°14.026 2°55.493 12.1 327 15.4 100670 41
2011-06-17 15:10 51°13.931 2°55.547 10.2 326 15.4 100650 40
2011-06-17 15:11 51°13.839 2°55.61 9.1 327 15.4 100650 41
2011-06-17 15:12 51°13.759 2°55.698 8.3 341 15.4 100660 41
2011-06-17 15:13 51°13.708 2°55.796 5.1 334 15.4 100660 41
2011-06-17 15:14 51°13.674 2°55.878 7.5 346 15.4 100660 40
2011-06-17 15:15 51°13.652 2°55.958 6.2 343 15.4 100660 40